Řízení letového provozu České republiky
Letiste: LKNA Aktualizace: 17.10.2017 23:08:05  UTC
 METAR LKNA 17.10. 23:00 ...
METAR LKNA 172300Z 10008KT CAVOK 13/11 Q1021=
 TAF LKNA 17.10. 17:00 ...
TAF LKNA 171700Z 1718/1818 12004KT 8000 NSC      BECMG 1720/1722 3000 BR NSC      TEMPO 1802/1809 0600 FG NSC      BECMG 1808/1810 CAVOK=